Time;durP1;ratioP1;P1;durP2;ratioP2;P2;SDS_P1;SDS_P2;PMS_P1;PMS_P2;Temp;Humidity;BMP_temperature;BMP_pressure;BME280_temperature;BME280_humidity;BME280_pressure;Samples;Min_cycle;Max_cycle;Signal;HPM_P1;HPM_P2
2021/06/01 00:00:09;;;;;;;5.20;3.60;;;16.20;14.80;;;;;;4991644;28;20540;-72
2021/06/01 00:02:34;;;;;;;5.72;3.45;;;16.20;15.00;;;;;;4991898;28;20895;-70
2021/06/01 00:05:00;;;;;;;6.40;3.80;;;16.30;14.30;;;;;;4991599;28;20442;-71
2021/06/01 00:07:25;;;;;;;8.52;4.10;;;16.30;14.60;;;;;;4992134;28;20399;-71
2021/06/01 00:09:51;;;;;;;6.25;3.60;;;16.20;14.80;;;;;;4995268;28;20876;-72
2021/06/01 00:12:17;;;;;;;4.93;3.40;;;16.30;14.40;;;;;;4995920;28;20410;-72
2021/06/01 00:14:42;;;;;;;4.83;3.70;;;16.10;14.90;;;;;;4994158;28;20437;-71
2021/06/01 00:17:08;;;;;;;5.53;3.30;;;16.00;15.10;;;;;;4992548;28;20819;-71
2021/06/01 00:19:33;;;;;;;6.13;3.47;;;16.00;15.00;;;;;;4991439;28;20426;-72
2021/06/01 00:21:59;;;;;;;4.53;3.60;;;15.90;15.20;;;;;;4991418;28;20914;-72
2021/06/01 00:24:25;;;;;;;3.93;3.50;;;15.90;15.40;;;;;;4990900;28;20914;-72
2021/06/01 00:26:50;;;;;;;3.60;3.07;;;15.90;15.30;;;;;;4992412;28;20384;-72
2021/06/01 00:29:16;;;;;;;4.53;3.33;;;15.90;15.40;;;;;;4992490;28;20383;-72
2021/06/01 00:31:42;;;;;;;3.65;3.22;;;15.90;15.40;;;;;;4992140;28;20383;-72
2021/06/01 00:34:08;;;;;;;6.07;4.10;;;15.80;15.80;;;;;;4991174;28;20781;-72
2021/06/01 00:36:34;;;;;;;6.68;3.55;;;15.80;15.50;;;;;;4991672;28;20512;-71
2021/06/01 00:39:00;;;;;;;5.65;3.70;;;15.80;15.60;;;;;;4991788;28;20418;-72
2021/06/01 00:41:26;;;;;;;4.90;3.42;;;15.80;15.90;;;;;;4991911;28;20891;-71
2021/06/01 00:43:51;;;;;;;7.75;3.42;;;15.70;15.70;;;;;;4991460;28;20925;-72
2021/06/01 00:46:17;;;;;;;6.43;3.30;;;15.70;16.00;;;;;;4996834;28;20899;-72
2021/06/01 00:48:42;;;;;;;4.80;3.20;;;15.70;15.90;;;;;;5018348;28;20406;-72
2021/06/01 00:51:08;;;;;;;4.80;3.13;;;15.60;15.90;;;;;;5005016;28;20474;-72
2021/06/01 00:53:36;;;;;;;3.78;3.45;;;15.60;15.70;;;;;;5002203;28;20421;-72
2021/06/01 00:56:04;;;;;;;6.10;3.60;;;15.70;15.70;;;;;;5003170;28;20458;-72
2021/06/01 00:58:30;;;;;;;5.90;3.55;;;15.70;15.70;;;;;;5004614;28;20414;-72
2021/06/01 01:03:38;;;;;;;5.13;3.85;;;15.60;15.90;;;;;;4991299;28;20424;-71
2021/06/01 01:06:31;;;;;;;5.90;3.58;;;15.70;15.90;;;;;;4971664;28;20400;-70
2021/06/01 01:09:01;;;;;;;3.60;3.30;;;15.70;15.70;;;;;;4973258;28;20877;-71
2021/06/01 01:11:32;;;;;;;4.85;3.40;;;15.70;15.40;;;;;;4971559;28;20419;-71
2021/06/01 01:14:06;;;;;;;6.18;3.70;;;15.70;15.40;;;;;;4974464;28;20460;-71
2021/06/01 01:16:34;;;;;;;4.25;3.80;;;15.80;15.10;;;;;;4991482;28;20422;-72
2021/06/01 01:19:15;;;;;;;4.63;3.60;;;15.70;15.90;;;;;;4990884;28;20389;-71
2021/06/01 01:21:51;;;;;;;4.00;3.30;;;15.50;15.80;;;;;;4991042;28;20808;-71
2021/06/01 01:24:26;;;;;;;4.18;3.47;;;15.60;15.90;;;;;;4990265;28;20420;-72
2021/06/01 01:27:10;;;;;;;5.50;3.30;;;15.60;15.90;;;;;;4990864;28;20429;-72
2021/06/01 01:29:40;;;;;;;4.50;3.50;;;15.50;15.80;;;;;;4990991;28;20387;-74
2021/06/01 01:32:32;;;;;;;4.40;3.33;;;15.50;15.60;;;;;;4990842;28;20444;-71
2021/06/01 01:34:59;;;;;;;4.07;3.67;;;15.50;15.50;;;;;;4961605;28;20779;-72
2021/06/01 01:37:32;;;;;;;5.35;3.65;;;15.50;15.70;;;;;;4991112;28;20926;-72
2021/06/01 01:39:59;;;;;;;3.83;3.00;;;15.50;15.60;;;;;;4991816;28;20484;-72
2021/06/01 01:42:37;;;;;;;7.53;3.67;;;15.30;16.30;;;;;;4993898;28;20417;-71
2021/06/01 01:45:06;;;;;;;5.63;3.30;;;15.20;16.40;;;;;;4992772;28;20418;-71
2021/06/01 01:50:07;;;;;;;6.78;3.47;;;15.10;16.80;;;;;;5009217;23;20469;-75
2021/06/01 01:52:39;;;;;;;3.88;3.22;;;15.00;16.90;;;;;;4983891;28;20482;-74
2021/06/01 01:55:07;;;;;;;9.65;4.45;;;14.90;17.20;;;;;;5000389;28;20910;-75
2021/06/01 01:57:35;;;;;;;6.88;3.83;;;14.90;17.10;;;;;;4995187;28;20445;-75
2021/06/01 02:00:05;;;;;;;3.60;3.30;;;15.00;17.30;;;;;;5002097;28;20381;-75
2021/06/01 02:02:31;;;;;;;4.03;3.45;;;15.00;17.20;;;;;;5014078;28;20381;-75
2021/06/01 02:04:57;;;;;;;6.20;3.70;;;15.00;17.10;;;;;;5014590;28;20467;-74
2021/06/01 02:07:22;;;;;;;4.80;3.47;;;14.90;17.50;;;;;;5018623;28;20939;-76
2021/06/01 02:09:48;;;;;;;4.13;3.45;;;14.80;17.60;;;;;;5017409;28;20404;-75
2021/06/01 02:12:15;;;;;;;3.90;3.50;;;14.70;18.20;;;;;;5014325;28;20535;-74
2021/06/01 02:14:40;;;;;;;4.45;3.90;;;14.60;18.30;;;;;;4996637;28;20472;-75
2021/06/01 02:17:06;;;;;;;7.95;4.07;;;14.60;18.30;;;;;;5014244;28;20404;-75
2021/06/01 02:19:32;;;;;;;5.40;3.40;;;14.60;18.50;;;;;;5014072;28;20444;-75
2021/06/01 02:22:38;;;;;;;3.80;3.50;;;14.50;18.60;;;;;;5013949;28;20423;-76
2021/06/01 02:25:14;;;;;;;4.05;3.55;;;14.50;19.20;;;;;;5014667;28;20502;-76
2021/06/01 02:27:50;;;;;;;5.97;3.80;;;14.40;19.40;;;;;;5010708;28;20550;-75
2021/06/01 02:30:20;;;;;;;4.20;3.80;;;14.30;19.90;;;;;;5013409;28;20484;-75
2021/06/01 02:32:52;;;;;;;6.28;4.10;;;14.20;19.70;;;;;;5013186;28;20383;-75
2021/06/01 02:35:25;;;;;;;7.00;3.60;;;14.20;19.80;;;;;;5013135;28;20384;-75
2021/06/01 02:37:52;;;;;;;10.13;4.50;;;14.30;19.70;;;;;;5013222;28;20389;-74
2021/06/01 02:40:21;;;;;;;7.65;4.53;;;14.10;20.00;;;;;;5013146;28;20439;-75
2021/06/01 02:42:47;;;;;;;8.50;4.30;;;14.00;20.40;;;;;;5012732;28;20400;-76
2021/06/01 02:45:17;;;;;;;5.60;4.15;;;14.00;20.50;;;;;;5012945;28;20447;-76
2021/06/01 02:47:44;;;;;;;5.15;3.70;;;14.00;20.50;;;;;;5012918;28;20388;-75
2021/06/01 02:50:11;;;;;;;5.95;4.30;;;14.10;20.30;;;;;;5012498;28;20397;-76
2021/06/01 02:52:39;;;;;;;6.95;3.95;;;13.90;20.70;;;;;;5012833;28;20424;-75
2021/06/01 02:55:06;;;;;;;5.20;3.40;;;13.80;21.10;;;;;;4995541;28;20389;-75
2021/06/01 02:57:33;;;;;;;5.07;4.07;;;13.70;22.00;;;;;;5013243;28;20411;-76
2021/06/01 02:59:59;;;;;;;6.05;4.47;;;13.70;22.50;;;;;;5013530;28;20846;-76
2021/06/01 03:02:28;;;;;;;9.20;4.87;;;13.60;22.70;;;;;;5013370;28;20397;-76
2021/06/01 03:04:55;;;;;;;5.70;4.40;;;13.50;23.00;;;;;;5013307;28;20504;-77
2021/06/01 03:07:22;;;;;;;7.20;4.75;;;13.60;23.40;;;;;;5013657;28;20405;-77
2021/06/01 03:09:48;;;;;;;6.80;4.10;;;13.50;23.20;;;;;;5014158;28;20476;-77
2021/06/01 03:12:34;;;;;;;6.70;4.47;;;13.60;23.90;;;;;;5014722;28;20416;-76
2021/06/01 03:15:00;;;;;;;5.97;4.03;;;13.50;23.90;;;;;;5012768;28;20381;-77
2021/06/01 03:17:26;;;;;;;6.27;4.20;;;13.30;24.50;;;;;;5012967;28;20393;-77
2021/06/01 03:19:51;;;;;;;6.73;4.00;;;13.20;25.10;;;;;;5012769;28;20393;-76
2021/06/01 03:22:17;;;;;;;5.90;4.40;;;13.10;25.50;;;;;;4994921;28;20401;-76
2021/06/01 03:24:43;;;;;;;5.20;3.90;;;13.00;25.50;;;;;;5012024;28;20951;-76
2021/06/01 03:27:08;;;;;;;4.43;4.03;;;13.00;25.70;;;;;;4994356;28;20405;-76
2021/06/01 03:29:34;;;;;;;8.20;4.50;;;13.00;26.10;;;;;;5012320;28;20420;-76
2021/06/01 03:32:00;;;;;;;5.97;4.20;;;12.90;26.40;;;;;;4994827;28;20388;-76
2021/06/01 03:34:25;;;;;;;4.45;4.00;;;12.90;26.80;;;;;;4994692;28;20400;-75
2021/06/01 03:36:51;;;;;;;4.97;4.40;;;12.90;26.90;;;;;;5011973;28;20491;-76
2021/06/01 03:39:19;;;;;;;8.60;4.30;;;12.80;27.80;;;;;;5012477;28;20947;-76
2021/06/01 03:41:45;;;;;;;6.28;4.30;;;12.80;27.60;;;;;;5012347;28;20392;-76
2021/06/01 03:44:10;;;;;;;7.37;4.10;;;12.90;28.50;;;;;;5011984;28;20453;-78
2021/06/01 03:46:36;;;;;;;6.90;4.20;;;12.90;28.40;;;;;;5011907;28;20448;-76
2021/06/01 03:49:02;;;;;;;6.75;4.50;;;12.90;28.10;;;;;;5012034;28;20424;-76
2021/06/01 03:51:27;;;;;;;6.28;4.40;;;12.90;27.90;;;;;;4994236;28;20481;-76
2021/06/01 03:53:53;;;;;;;6.88;4.20;;;12.90;28.10;;;;;;5011655;28;20731;-76
2021/06/01 03:56:19;;;;;;;7.38;4.90;;;12.90;28.10;;;;;;5011694;28;21003;-76
2021/06/01 03:58:45;;;;;;;5.45;4.43;;;13.00;27.80;;;;;;5015921;28;20411;-76
2021/06/01 04:01:11;;;;;;;5.50;4.57;;;13.00;27.70;;;;;;5000595;28;20468;-76
2021/06/01 04:03:40;;;;;;;6.10;4.20;;;13.00;27.70;;;;;;4994579;28;20381;-77
2021/06/01 04:06:07;;;;;;;7.45;5.00;;;13.00;27.90;;;;;;5011771;28;20400;-76
2021/06/01 04:08:32;;;;;;;5.03;4.20;;;13.00;28.10;;;;;;5011838;28;20460;-76
2021/06/01 04:10:58;;;;;;;8.60;4.90;;;13.00;28.10;;;;;;4994048;28;20580;-77
2021/06/01 04:13:24;;;;;;;8.35;5.22;;;13.10;28.30;;;;;;5011656;28;20439;-77
2021/06/01 04:15:49;;;;;;;10.82;4.80;;;13.20;28.10;;;;;;5011480;28;20436;-77
2021/06/01 04:18:15;;;;;;;5.90;4.40;;;13.20;27.80;;;;;;5013512;28;20385;-76
2021/06/01 04:20:40;;;;;;;6.80;4.70;;;13.20;28.00;;;;;;5013326;28;20385;-76
2021/06/01 04:23:06;;;;;;;10.70;5.07;;;13.20;28.00;;;;;;5012879;28;20420;-76
2021/06/01 04:25:31;;;;;;;6.07;5.10;;;13.30;28.30;;;;;;5012778;28;20404;-76
2021/06/01 04:27:57;;;;;;;7.20;4.40;;;13.30;28.30;;;;;;5014234;28;20419;-76
2021/06/01 04:30:23;;;;;;;7.35;5.10;;;13.60;29.00;;;;;;5014356;28;20388;-75
2021/06/01 04:32:49;;;;;;;8.45;4.50;;;13.60;28.20;;;;;;5013818;28;20431;-75
2021/06/01 04:35:15;;;;;;;7.28;4.90;;;13.60;28.40;;;;;;5011594;28;20419;-75
2021/06/01 04:37:41;;;;;;;9.55;4.70;;;13.70;29.40;;;;;;5010679;28;20404;-76
2021/06/01 04:40:10;;;;;;;12.57;5.40;;;13.70;28.70;;;;;;4993739;28;20731;-76
2021/06/01 04:42:35;;;;;;;6.40;4.68;;;13.80;28.40;;;;;;5011692;28;20424;-75
2021/06/01 04:45:01;;;;;;;6.40;4.63;;;13.80;28.10;;;;;;5011291;28;20471;-74
2021/06/01 04:47:26;;;;;;;6.65;4.90;;;13.80;28.10;;;;;;5010688;28;20901;-75
2021/06/01 04:49:52;;;;;;;7.70;4.33;;;13.90;27.50;;;;;;5010838;28;20945;-74
2021/06/01 04:52:18;;;;;;;85.97;54.73;;;14.00;26.80;;;;;;4992975;28;20389;-74
2021/06/01 04:54:44;;;;;;;115.75;76.53;;;14.10;27.20;;;;;;5010658;28;20874;-73
2021/06/01 04:57:09;;;;;;;17.63;10.95;;;14.20;27.50;;;;;;4993671;28;20425;-73
2021/06/01 04:59:36;;;;;;;15.23;10.80;;;14.30;26.10;;;;;;5010742;28;20844;-73
2021/06/01 05:02:02;;;;;;;21.50;8.65;;;14.40;25.40;;;;;;5010814;28;20461;-72
2021/06/01 05:04:28;;;;;;;18.65;11.13;;;14.60;25.60;;;;;;5010276;28;20495;-74
2021/06/01 05:06:57;;;;;;;10.20;6.90;;;14.80;24.60;;;;;;4992319;28;20393;-73
2021/06/01 05:09:23;;;;;;;28.60;20.70;;;14.90;23.90;;;;;;5010892;28;20870;-73
2021/06/01 05:11:49;;;;;;;18.70;8.50;;;14.90;23.60;;;;;;5010947;28;20468;-73
2021/06/01 05:14:14;;;;;;;9.50;5.85;;;15.00;23.10;;;;;;5013015;28;20858;-72
2021/06/01 05:16:40;;;;;;;13.45;7.93;;;15.00;22.80;;;;;;5014179;28;20449;-73
2021/06/01 05:19:06;;;;;;;15.80;9.55;;;15.10;23.00;;;;;;5014551;28;20749;-74
2021/06/01 05:21:31;;;;;;;21.08;10.88;;;15.20;23.20;;;;;;4996843;28;20501;-72
2021/06/01 05:23:57;;;;;;;11.48;7.07;;;15.30;23.20;;;;;;5013701;28;20847;-72
2021/06/01 05:26:23;;;;;;;26.52;11.48;;;15.40;22.50;;;;;;4996003;28;20766;-75
2021/06/01 05:28:48;;;;;;;11.60;5.90;;;15.40;22.60;;;;;;5013604;28;20754;-73
2021/06/01 05:31:59;;;;;;;9.27;6.53;;;15.50;21.60;;;;;;5015549;28;20399;-73
2021/06/01 05:34:13;;;;;;;13.80;7.55;;;15.60;21.60;;;;;;5011468;28;20527;-72
2021/06/01 05:36:39;;;;;;;8.70;4.88;;;15.70;21.90;;;;;;5015598;28;20416;-72
2021/06/01 05:39:10;;;;;;;37.15;24.85;;;15.70;21.50;;;;;;5013905;28;20471;-72
2021/06/01 05:41:36;;;;;;;9.00;5.20;;;15.80;21.10;;;;;;5013857;28;20385;-72
2021/06/01 05:44:01;;;;;;;9.73;4.97;;;15.90;20.20;;;;;;5013471;28;20468;-72
2021/06/01 05:46:28;;;;;;;9.38;5.57;;;16.00;20.30;;;;;;5013488;28;20884;-72
2021/06/01 05:48:54;;;;;;;6.75;4.40;;;16.10;19.60;;;;;;5014048;28;20438;-72
2021/06/01 05:51:23;;;;;;;15.55;6.00;;;16.20;19.30;;;;;;5013866;28;20389;-73
2021/06/01 05:53:52;;;;;;;8.23;4.65;;;16.20;19.30;;;;;;4995621;28;20471;-72
2021/06/01 05:56:18;;;;;;;6.45;4.97;;;16.30;19.70;;;;;;4995349;28;20582;-73
2021/06/01 05:58:44;;;;;;;10.43;5.13;;;16.40;19.50;;;;;;5013213;28;20472;-73
2021/06/01 06:01:09;;;;;;;16.13;10.60;;;16.40;19.40;;;;;;5013756;28;20383;-73
2021/06/01 06:03:35;;;;;;;7.93;5.63;;;16.50;19.50;;;;;;5013468;28;20381;-72
2021/06/01 06:06:04;;;;;;;53.20;37.10;;;16.60;18.90;;;;;;5013831;28;20579;-74
2021/06/01 06:08:30;;;;;;;12.82;10.45;;;16.80;19.60;;;;;;5013698;28;20385;-73
2021/06/01 06:10:56;;;;;;;10.70;5.90;;;16.90;20.00;;;;;;5013036;28;20878;-74
2021/06/01 06:13:22;;;;;;;7.80;5.63;;;17.00;18.70;;;;;;5013302;28;20415;-73
2021/06/01 06:15:47;;;;;;;5.40;3.80;;;17.10;18.50;;;;;;5013118;28;20707;-74
2021/06/01 06:18:31;;;;;;;6.67;4.23;;;17.20;18.20;;;;;;5013813;28;20400;-74
2021/06/01 06:21:00;;;;;;;6.78;4.20;;;17.30;17.80;;;;;;5013222;28;20381;-74
2021/06/01 06:23:28;;;;;;;4.63;4.22;;;17.30;17.70;;;;;;5013374;28;20384;-73
2021/06/01 06:25:53;;;;;;;10.18;5.03;;;17.40;17.50;;;;;;5012116;28;20499;-73
2021/06/01 06:28:19;;;;;;;7.03;4.35;;;17.60;17.80;;;;;;5013830;28;20861;-75
2021/06/01 06:30:44;;;;;;;7.50;4.25;;;17.70;17.40;;;;;;4996778;28;20396;-73
2021/06/01 06:33:10;;;;;;;13.30;4.67;;;17.70;17.60;;;;;;5016209;28;20447;-73
2021/06/01 06:35:35;;;;;;;6.47;4.82;;;17.80;17.70;;;;;;4998102;28;20404;-73
2021/06/01 06:38:01;;;;;;;7.70;4.50;;;17.90;17.40;;;;;;5015915;28;20396;-73
2021/06/01 06:40:26;;;;;;;5.50;4.00;;;17.90;17.40;;;;;;5016312;28;20801;-73
2021/06/01 06:42:52;;;;;;;5.30;4.70;;;18.00;16.50;;;;;;5017105;28;20874;-74
2021/06/01 06:45:18;;;;;;;7.32;4.00;;;18.20;16.20;;;;;;5012946;28;20412;-74
2021/06/01 06:50:14;;;;;;;6.97;4.20;;;18.30;16.10;;;;;;5012644;28;20388;-74
2021/06/01 06:52:43;;;;;;;7.30;4.30;;;18.40;15.50;;;;;;5013852;28;20912;-73
2021/06/01 06:55:10;;;;;;;8.80;4.15;;;18.40;15.50;;;;;;5013921;28;20539;-74
2021/06/01 06:57:38;;;;;;;5.93;4.10;;;18.40;15.70;;;;;;5015106;28;20380;-75
2021/06/01 07:00:10;;;;;;;9.40;4.30;;;18.60;15.20;;;;;;4997578;28;20416;-76
2021/06/01 07:02:36;;;;;;;8.60;4.30;;;18.70;15.60;;;;;;5013239;28;20772;-76
2021/06/01 07:05:04;;;;;;;13.18;5.00;;;18.70;15.40;;;;;;5013040;28;20882;-74
2021/06/01 07:07:30;;;;;;;8.45;4.60;;;18.80;14.90;;;;;;4995112;28;20478;-74
2021/06/01 07:09:56;;;;;;;4.65;4.10;;;18.90;14.90;;;;;;5012349;28;20393;-74
2021/06/01 07:12:21;;;;;;;6.15;3.90;;;19.00;14.70;;;;;;5012772;28;20893;-74
2021/06/01 07:15:11;;;;;;;4.25;3.85;;;19.10;14.50;;;;;;5008800;28;20408;-75
2021/06/01 07:17:39;;;;;;;8.43;4.60;;;19.10;14.00;;;;;;5012858;28;20939;-74
2021/06/01 07:20:07;;;;;;;13.38;4.20;;;19.10;14.30;;;;;;4997034;28;20402;-74
2021/06/01 07:22:33;;;;;;;7.70;4.25;;;19.20;14.10;;;;;;4994347;28;20401;-74
2021/06/01 07:24:58;;;;;;;6.05;4.03;;;19.30;14.50;;;;;;5012736;28;20782;-74
2021/06/01 07:27:25;;;;;;;4.40;3.83;;;19.50;14.40;;;;;;5007951;28;20428;-75
2021/06/01 07:29:51;;;;;;;5.95;3.90;;;19.60;13.50;;;;;;4988578;28;20393;-75
2021/06/01 07:32:17;;;;;;;8.40;3.93;;;19.60;13.40;;;;;;5010124;28;20970;-75
2021/06/01 07:34:42;;;;;;;6.77;4.30;;;19.60;13.30;;;;;;5011590;28;20419;-75
2021/06/01 07:37:08;;;;;;;7.45;4.72;;;19.70;13.70;;;;;;5011890;28;20405;-75
2021/06/01 07:39:33;;;;;;;6.20;3.73;;;19.80;12.80;;;;;;5012434;28;20470;-74
2021/06/01 07:41:59;;;;;;;4.90;3.80;;;19.90;12.80;;;;;;5011884;28;20392;-76
2021/06/01 07:44:25;;;;;;;4.82;3.60;;;20.00;12.90;;;;;;5012452;28;20500;-76
2021/06/01 07:46:51;;;;;;;4.70;4.20;;;20.20;12.50;;;;;;5012246;28;20758;-75
2021/06/01 07:49:17;;;;;;;5.13;3.55;;;20.20;12.20;;;;;;5011569;28;20404;-73
2021/06/01 07:51:43;;;;;;;4.65;3.80;;;20.40;12.40;;;;;;5011344;28;20436;-74
2021/06/01 07:54:09;;;;;;;4.93;3.50;;;20.40;11.40;;;;;;5011022;28;20400;-73
2021/06/01 07:56:35;;;;;;;6.60;4.10;;;20.40;12.50;;;;;;5010918;28;20447;-73
2021/06/01 07:59:01;;;;;;;4.87;3.70;;;20.60;10.70;;;;;;4993534;28;20400;-73
2021/06/01 08:01:26;;;;;;;6.85;3.80;;;20.60;10.20;;;;;;4993091;28;20901;-72
2021/06/01 08:03:52;;;;;;;3.80;3.40;;;20.60;10.60;;;;;;5010984;28;20443;-74
2021/06/01 08:06:17;;;;;;;3.80;3.50;;;20.70;10.30;;;;;;5010806;28;20770;-74
2021/06/01 08:08:43;;;;;;;8.63;4.10;;;20.80;10.00;;;;;;5009520;28;20826;-74
2021/06/01 08:11:09;;;;;;;4.07;3.58;;;20.90;10.20;;;;;;5006265;28;20400;-74
2021/06/01 08:13:35;;;;;;;3.90;3.35;;;21.00;10.20;;;;;;5010744;28;20392;-74
2021/06/01 08:16:02;;;;;;;6.50;4.00;;;21.10;10.00;;;;;;5010478;28;20882;-75
2021/06/01 08:18:31;;;;;;;4.03;3.25;;;21.20;9.20;;;;;;5010474;28;20471;-74
2021/06/01 08:21:07;;;;;;;3.92;3.53;;;21.30;8.50;;;;;;5010601;28;20543;-75
2021/06/01 08:23:34;;;;;;;4.38;3.70;;;21.30;8.30;;;;;;5007221;28;20461;-76
2021/06/01 08:26:00;;;;;;;4.33;3.83;;;21.30;9.20;;;;;;5000632;28;20492;-75
2021/06/01 08:28:25;;;;;;;8.32;3.90;;;21.40;7.90;;;;;;4993765;28;20431;-74
2021/06/01 08:30:52;;;;;;;7.47;3.80;;;21.50;7.60;;;;;;5011524;28;20476;-74
2021/06/01 08:33:18;;;;;;;4.18;3.78;;;21.50;7.50;;;;;;5011154;28;20397;-74
2021/06/01 08:35:44;;;;;;;3.95;2.90;;;21.60;7.90;;;;;;5017985;28;20385;-74
2021/06/01 08:38:09;;;;;;;4.15;3.30;;;21.60;7.30;;;;;;5019649;28;20881;-75
2021/06/01 08:40:35;;;;;;;4.70;3.90;;;21.70;6.30;;;;;;5013444;28;20411;-75
2021/06/01 08:43:01;;;;;;;5.28;3.60;;;21.70;6.70;;;;;;5011282;28;20479;-75
2021/06/01 08:45:27;;;;;;;4.60;3.87;;;21.80;7.10;;;;;;5003419;28;20820;-74
2021/06/01 08:47:56;;;;;;;8.43;3.80;;;21.80;7.20;;;;;;4992387;28;20455;-75
2021/06/01 08:50:21;;;;;;;6.50;3.42;;;22.00;7.60;;;;;;5012193;28;20480;-74
2021/06/01 08:52:47;;;;;;;3.90;3.30;;;22.10;7.70;;;;;;5012048;28;20443;-74
2021/06/01 08:55:13;;;;;;;3.80;3.50;;;22.20;6.40;;;;;;5012021;28;20424;-74
2021/06/01 08:57:39;;;;;;;5.10;2.90;;;22.30;5.90;;;;;;5010575;28;20563;-74
2021/06/01 09:00:08;;;;;;;3.50;3.20;;;22.40;4.80;;;;;;5003416;28;20407;-74
2021/06/01 09:02:33;;;;;;;5.75;3.20;;;22.40;4.60;;;;;;5010862;28;20495;-75
2021/06/01 09:05:03;;;;;;;5.43;3.72;;;22.40;4.60;;;;;;5011101;28;20488;-75
2021/06/01 09:10:34;;;;;;;9.45;3.85;;;22.30;5.40;;;;;;5011008;28;20392;-75
2021/06/01 09:21:47;;;;;;;4.80;3.40;;;22.50;5.20;;;;;;5011368;28;20515;-76
2021/06/01 09:24:14;;;;;;;5.70;3.75;;;22.60;3.80;;;;;;5010636;28;20422;-76
2021/06/01 09:29:24;;;;;;;3.60;3.30;;;22.90;3.80;;;;;;5010651;28;20376;-76
2021/06/01 09:32:08;;;;;;;4.75;3.40;;;23.10;5.80;;;;;;5011443;28;20388;-76
2021/06/01 09:34:42;;;;;;;3.37;3.07;;;23.10;4.20;;;;;;5011502;28;20400;-76
2021/06/01 09:37:23;;;;;;;3.65;3.30;;;23.10;3.40;;;;;;4996326;28;20447;-75
2021/06/01 09:40:09;;;;;;;3.70;3.10;;;23.10;2.80;;;;;;4997655;28;20424;-75
2021/06/01 09:42:36;;;;;;;3.20;2.90;;;23.20;3.30;;;;;;4997427;28;20423;-75
2021/06/01 09:45:09;;;;;;;7.32;3.15;;;23.40;3.10;;;;;;5016671;28;20495;-75
2021/06/01 09:47:48;;;;;;;4.80;3.30;;;23.50;3.10;;;;;;5016066;28;20477;-75
2021/06/01 09:50:25;;;;;;;8.23;3.42;;;23.50;2.00;;;;;;5016494;28;20894;-74
2021/06/01 09:52:55;;;;;;;5.80;3.25;;;23.40;2.00;;;;;;5014118;28;20424;-75
2021/06/01 09:55:34;;;;;;;3.20;3.00;;;23.50;2.60;;;;;;5014074;28;20393;-74
2021/06/01 09:58:02;;;;;;;3.20;2.90;;;23.60;2.40;;;;;;5013403;28;20399;-73
2021/06/01 10:00:30;;;;;;;3.20;2.90;;;23.60;2.50;;;;;;5021439;28;20393;-75
2021/06/01 10:03:01;;;;;;;3.90;3.20;;;23.50;2.10;;;;;;5026299;28;20393;-74
2021/06/01 10:05:28;;;;;;;3.58;3.05;;;23.50;3.30;;;;;;5026941;28;20451;-74
2021/06/01 10:07:56;;;;;;;3.10;2.90;;;23.50;1.90;;;;;;5024878;28;20544;-75
2021/06/01 10:10:28;;;;;;;7.50;3.63;;;23.40;1.80;;;;;;5024602;28;20409;-75
2021/06/01 10:12:59;;;;;;;5.30;3.42;;;23.60;2.90;;;;;;5023088;28;20401;-74
2021/06/01 10:15:27;;;;;;;10.10;3.25;;;23.80;2.50;;;;;;5026700;28;20462;-75
2021/06/01 10:17:53;;;;;;;3.30;3.00;;;23.90;3.70;;;;;;5027404;28;20420;-75
2021/06/01 10:20:31;;;;;;;4.75;3.20;;;24.10;2.70;;;;;;5027492;28;20393;-74
2021/06/01 10:22:58;;;;;;;4.47;2.97;;;24.10;2.60;;;;;;5014710;28;20406;-75
2021/06/01 10:25:24;;;;;;;5.53;3.30;;;24.20;2.50;;;;;;5012385;28;20411;-75
2021/06/01 10:27:51;;;;;;;3.65;2.97;;;24.20;2.20;;;;;;5006757;28;20382;-75
2021/06/01 10:30:17;;;;;;;3.93;3.20;;;24.10;2.00;;;;;;5009954;28;20486;-75
2021/06/01 10:32:57;;;;;;;5.80;3.27;;;24.00;2.10;;;;;;5018529;28;20499;-75
2021/06/01 10:35:24;;;;;;;3.40;3.10;;;24.00;1.80;;;;;;5018619;28;20420;-75
2021/06/01 10:52:03;;;;;;;3.60;3.30;;;24.30;1.30;;;;;;5013179;28;20403;-73
2021/06/01 10:55:07;;;;;;;3.75;3.20;;;24.30;1.00;;;;;;5014715;28;20808;-74
2021/06/01 10:57:57;;;;;;;3.05;2.75;;;24.40;1.70;;;;;;5015356;28;20450;-75
2021/06/01 11:03:15;;;;;;;4.80;3.20;;;24.60;1.70;;;;;;5016154;28;20458;-74
2021/06/01 11:05:57;;;;;;;3.78;3.25;;;24.70;1.30;;;;;;5003467;28;20425;-74
2021/06/01 11:08:38;;;;;;;3.30;3.00;;;24.50;1.00;;;;;;5001485;28;20869;-73
2021/06/01 11:11:22;;;;;;;3.80;2.90;;;24.40;1.00;;;;;;5012115;28;20392;-74
2021/06/01 11:13:51;;;;;;;3.90;3.50;;;24.60;2.30;;;;;;5012624;28;20404;-75
2021/06/01 11:16:17;;;;;;;3.47;2.90;;;24.70;1.50;;;;;;5016076;28;20397;-74
2021/06/01 11:18:53;;;;;;;3.05;2.75;;;24.80;1.00;;;;;;5019816;28;20769;-73
2021/06/01 11:24:10;;;;;;;6.00;2.92;;;25.00;1.00;;;;;;5017695;28;20435;-74
2021/06/01 11:35:31;;;;;;;3.30;3.00;;;25.40;1.00;;;;;;5011063;28;20480;-74
2021/06/01 11:40:32;;;;;;;4.70;3.10;;;25.40;1.00;;;;;;5019821;28;20419;-73
2021/06/01 11:43:04;;;;;;;3.30;3.00;;;25.40;1.00;;;;;;5004100;28;20766;-73
2021/06/01 11:51:25;;;;;;;4.30;3.17;;;25.50;1.00;;;;;;5005557;28;20567;-75
2021/06/01 11:54:04;;;;;;;3.40;3.10;;;25.50;1.00;;;;;;5015115;28;20393;-74
2021/06/01 12:18:22;;;;;;;32.30;6.40;;;26.20;1.00;;;;;;5014410;28;20428;-77
2021/06/01 12:20:49;;;;;;;3.58;2.90;;;26.20;1.00;;;;;;4995432;28;20440;-76
2021/06/01 12:23:26;;;;;;;4.10;2.90;;;26.20;1.00;;;;;;5003750;28;20999;-77
2021/06/01 12:26:12;;;;;;;4.17;3.30;;;26.00;1.00;;;;;;4994871;28;20417;-75
2021/06/01 12:32:21;;;;;;;2.90;2.60;;;26.30;1.00;;;;;;4994612;28;20791;-77
2021/06/01 12:35:16;;;;;;;5.40;3.20;;;26.40;1.00;;;;;;4992209;28;20390;-76
2021/06/01 13:09:14;;;;;;;3.40;3.20;;;26.90;1.00;;;;;;4990910;28;20404;-76
2021/06/01 13:20:26;;;;;;;3.53;2.80;;;28.10;1.00;;;;;;5001108;28;20443;-75
2021/06/01 13:39:38;;;;;;;3.88;2.90;;;31.20;1.00;;;;;;5014846;28;20526;-76
2021/06/01 13:48:17;;;;;;;2.90;2.70;;;32.30;1.00;;;;;;5015421;28;20719;-76
2021/06/01 13:56:03;;;;;;;3.35;2.70;;;33.20;1.00;;;;;;5014470;28;20419;-75
2021/06/01 14:01:06;;;;;;;5.18;2.90;;;33.50;1.00;;;;;;5013261;28;20496;-74
2021/06/01 14:31:28;;;;;;;6.25;2.53;;;35.10;1.00;;;;;;5013216;28;20460;-75
2021/06/01 14:36:53;;;;;;;4.50;3.00;;;35.20;1.00;;;;;;5013107;28;20476;-75
2021/06/01 15:28:51;;;;;;;3.20;2.80;;;35.60;1.00;;;;;;4994815;28;20507;-74
2021/06/01 15:48:10;;;;;;;3.67;3.10;;;35.40;1.00;;;;;;5012830;28;20404;-76
2021/06/01 15:50:54;;;;;;;6.20;3.20;;;35.20;1.00;;;;;;4998069;28;20488;-75
2021/06/01 16:21:45;;;;;;;6.55;2.95;;;35.60;1.00;;;;;;4934723;28;20440;-76
2021/06/01 17:04:48;;;;;;;3.10;2.15;;;35.00;1.00;;;;;;5011003;28;20465;-74
2021/06/01 17:13:00;;;;;;;4.97;2.42;;;33.60;1.00;;;;;;5017504;28;20411;-75
2021/06/01 17:15:26;;;;;;;2.38;2.15;;;33.40;1.00;;;;;;4999981;28;20418;-74
2021/06/01 17:17:56;;;;;;;4.60;2.30;;;33.50;1.00;;;;;;5016048;28;20476;-75
2021/06/01 17:36:29;;;;;;;5.75;2.97;;;27.10;1.00;;;;;;5014690;28;20407;-73
2021/06/01 17:39:00;;;;;;;6.40;2.80;;;26.80;1.00;;;;;;4996323;28;20401;-74
2021/06/01 17:41:32;;;;;;;4.47;2.90;;;26.60;1.10;;;;;;5013767;28;20399;-74
2021/06/01 17:44:02;;;;;;;5.78;3.40;;;26.50;1.80;;;;;;5013346;28;20401;-73
2021/06/01 17:46:33;;;;;;;3.40;3.10;;;26.40;2.40;;;;;;5014275;28;20470;-76
2021/06/01 17:49:01;;;;;;;4.20;2.90;;;26.10;2.60;;;;;;4996774;28;20436;-74
2021/06/01 17:51:28;;;;;;;2.83;2.58;;;26.10;2.70;;;;;;4999515;28;20744;-75
2021/06/01 17:53:59;;;;;;;5.47;3.00;;;25.90;2.00;;;;;;4995027;28;20401;-75
2021/06/01 17:56:27;;;;;;;5.85;3.40;;;25.80;2.30;;;;;;5010319;28;20400;-75
2021/06/01 17:58:54;;;;;;;4.38;2.90;;;25.70;2.70;;;;;;5014474;28;20416;-76
2021/06/01 18:01:22;;;;;;;5.75;2.92;;;25.60;2.50;;;;;;5015002;28;20399;-76
2021/06/01 18:04:09;;;;;;;14.25;3.20;;;25.50;3.50;;;;;;5015261;28;20416;-75
2021/06/01 18:06:44;;;;;;;3.50;2.90;;;25.40;2.60;;;;;;4995198;28;20404;-74
2021/06/01 18:09:34;;;;;;;3.50;2.80;;;25.30;3.50;;;;;;5014508;28;20412;-76
2021/06/01 19:43:22;;;;;;;8.90;3.50;;;22.20;8.40;;;;;;4999872;28;20478;-73
2021/06/01 19:50:39;;;;;;;8.38;3.00;;;21.60;9.70;;;;;;5013954;28;20822;-73
2021/06/01 19:53:07;;;;;;;5.20;3.30;;;21.50;9.90;;;;;;4996601;28;20400;-78
2021/06/01 19:55:33;;;;;;;5.38;3.20;;;21.20;11.00;;;;;;5017622;28;20433;-79
2021/06/01 19:57:58;;;;;;;10.00;5.80;;;21.10;10.60;;;;;;4994400;28;20871;-76
2021/06/01 20:00:25;;;;;;;3.93;3.53;;;21.00;11.10;;;;;;4989477;28;20961;-76
2021/06/01 20:02:51;;;;;;;4.50;3.30;;;21.10;10.80;;;;;;4992784;28;20864;-75
2021/06/01 20:05:18;;;;;;;4.88;3.60;;;20.90;11.50;;;;;;4996416;28;20501;-75
2021/06/01 20:07:45;;;;;;;6.57;3.60;;;20.70;11.60;;;;;;4976476;28;20426;-78
2021/06/01 20:10:14;;;;;;;4.80;3.22;;;20.50;12.00;;;;;;4993431;28;20441;-76
2021/06/01 20:12:40;;;;;;;12.13;4.50;;;20.40;11.90;;;;;;5013169;28;20412;-76
2021/06/01 20:15:08;;;;;;;5.70;4.27;;;20.40;12.30;;;;;;4996170;28;20393;-77